Time;durP1;ratioP1;P1;durP2;ratioP2;P2;SDS_P1;SDS_P2;PMS_P1;PMS_P2;Temp;Humidity;BMP_temperature;BMP_pressure;BME280_temperature;BME280_humidity;BME280_pressure;Samples;Min_cycle;Max_cycle;Signal;HPM_P1;HPM_P2
2022/03/10 00:02:22;;;;;;;28.38;15.27;;;9.20;99.90;;;;;;5072540;28;20170;-83
2022/03/10 00:04:47;;;;;;;32.85;14.55;;;9.20;99.90;;;;;;5073024;28;20277;-78
2022/03/10 00:07:13;;;;;;;30.60;14.95;;;9.20;99.90;;;;;;5072632;28;20201;-80
2022/03/10 00:09:38;;;;;;;35.08;16.23;;;9.10;99.90;;;;;;5072761;28;20684;-81
2022/03/10 00:12:05;;;;;;;27.48;15.55;;;9.10;99.90;;;;;;5073419;28;20171;-82
2022/03/10 00:14:30;;;;;;;35.92;15.60;;;9.10;99.90;;;;;;5072832;28;20174;-82
2022/03/10 00:16:56;;;;;;;36.20;15.93;;;9.00;99.90;;;;;;5072934;28;20340;-82
2022/03/10 00:19:22;;;;;;;39.85;16.38;;;9.00;99.90;;;;;;5076206;28;20525;-85
2022/03/10 00:21:48;;;;;;;31.40;16.95;;;9.00;99.90;;;;;;5076886;28;20162;-81
2022/03/10 00:24:15;;;;;;;26.13;14.60;;;9.00;99.90;;;;;;5076658;28;20170;-78
2022/03/10 00:26:44;;;;;;;35.15;17.30;;;8.90;99.90;;;;;;5058497;28;20560;-83
2022/03/10 00:29:10;;;;;;;36.53;16.52;;;8.80;99.90;;;;;;5076584;28;20551;-82
2022/03/10 00:31:36;;;;;;;26.45;14.18;;;8.80;99.90;;;;;;5076423;28;20174;-83
2022/03/10 00:34:01;;;;;;;28.85;15.95;;;8.80;99.90;;;;;;5076024;28;20167;-83
2022/03/10 00:36:27;;;;;;;34.97;16.27;;;8.90;99.90;;;;;;5075956;28;20543;-80
2022/03/10 00:38:53;;;;;;;29.95;16.38;;;8.80;99.90;;;;;;5076275;28;20213;-78
2022/03/10 00:41:19;;;;;;;32.15;17.65;;;8.60;99.90;;;;;;5076503;28;20212;-79
2022/03/10 00:43:45;;;;;;;32.78;14.30;;;8.40;99.90;;;;;;5076544;28;20170;-82
2022/03/10 00:46:11;;;;;;;31.40;16.27;;;8.40;99.90;;;;;;5076164;28;20190;-80
2022/03/10 00:48:37;;;;;;;37.85;15.80;;;8.60;99.90;;;;;;5076074;28;20520;-77
2022/03/10 00:51:04;;;;;;;35.33;15.38;;;8.50;99.90;;;;;;5076305;28;20170;-79
2022/03/10 00:53:30;;;;;;;36.58;14.73;;;8.50;99.90;;;;;;5076175;28;20173;-79
2022/03/10 00:55:55;;;;;;;29.25;15.30;;;8.40;99.90;;;;;;5076047;28;20187;-78
2022/03/10 00:58:21;;;;;;;34.10;16.98;;;8.40;99.90;;;;;;5075421;28;20663;-78
2022/03/10 01:00:46;;;;;;;25.67;14.57;;;8.40;99.90;;;;;;5076164;28;20170;-83
2022/03/10 01:03:12;;;;;;;34.47;16.10;;;8.50;99.90;;;;;;5076164;28;20173;-78
2022/03/10 01:05:38;;;;;;;28.45;14.23;;;8.60;99.90;;;;;;5075875;28;20183;-78
2022/03/10 01:08:04;;;;;;;28.08;15.32;;;8.60;99.90;;;;;;5075684;28;20635;-84
2022/03/10 01:10:30;;;;;;;31.27;15.05;;;8.40;99.90;;;;;;5076379;28;20167;-78
2022/03/10 01:12:55;;;;;;;31.25;14.10;;;8.40;99.90;;;;;;5075703;28;20167;-82
2022/03/10 01:15:27;;;;;;;29.35;14.95;;;8.40;99.90;;;;;;5075818;28;20255;-77
2022/03/10 01:17:53;;;;;;;31.63;15.75;;;8.50;99.90;;;;;;5075629;28;20214;-81
2022/03/10 01:20:22;;;;;;;27.13;13.85;;;8.60;99.90;;;;;;5075701;28;20174;-81
2022/03/10 01:22:48;;;;;;;23.98;15.27;;;8.60;99.90;;;;;;5075306;28;20171;-78
2022/03/10 01:25:14;;;;;;;25.67;14.48;;;8.60;99.90;;;;;;5074885;28;20186;-77
2022/03/10 01:27:40;;;;;;;40.45;15.23;;;8.50;99.90;;;;;;5075179;28;20249;-82
2022/03/10 01:30:07;;;;;;;31.50;14.50;;;8.30;99.90;;;;;;5074769;28;20155;-82
2022/03/10 01:32:34;;;;;;;27.20;15.00;;;8.30;99.90;;;;;;5075280;28;20171;-83
2022/03/10 01:35:01;;;;;;;28.52;15.20;;;8.40;99.90;;;;;;5075355;28;20190;-83
2022/03/10 01:37:27;;;;;;;41.53;15.90;;;8.40;99.90;;;;;;5075321;28;20201;-81
2022/03/10 01:39:53;;;;;;;29.35;14.65;;;8.30;99.90;;;;;;5075041;28;20170;-82
2022/03/10 01:42:18;;;;;;;32.78;14.48;;;8.50;99.90;;;;;;5075002;28;20178;-79
2022/03/10 01:44:44;;;;;;;25.38;14.15;;;8.30;99.90;;;;;;5075470;28;20217;-84
2022/03/10 01:47:10;;;;;;;30.20;15.77;;;8.40;99.90;;;;;;5075490;28;20177;-78
2022/03/10 01:49:36;;;;;;;25.17;14.48;;;8.40;99.90;;;;;;5075414;28;20208;-82
2022/03/10 01:52:03;;;;;;;30.55;15.73;;;8.40;99.90;;;;;;5057132;28;20177;-82
2022/03/10 01:54:30;;;;;;;31.52;15.07;;;8.40;99.90;;;;;;5058104;28;20535;-82
2022/03/10 01:56:55;;;;;;;24.58;14.45;;;8.30;99.90;;;;;;5075367;28;20239;-83
2022/03/10 01:59:21;;;;;;;28.40;15.23;;;8.30;99.90;;;;;;5075449;28;20174;-84
2022/03/10 02:01:47;;;;;;;27.27;15.15;;;8.30;99.90;;;;;;5074751;28;20174;-79
2022/03/10 02:04:13;;;;;;;28.95;15.52;;;8.30;99.90;;;;;;5075522;28;20173;-79
2022/03/10 02:06:39;;;;;;;29.40;14.75;;;8.40;99.90;;;;;;5075291;28;20186;-82
2022/03/10 02:11:50;;;;;;;29.02;15.50;;;8.30;99.90;;;;;;5075448;28;20252;-77
2022/03/10 02:19:45;;;;;;;27.65;15.00;;;8.30;99.90;;;;;;5075108;28;20697;-78
2022/03/10 02:22:12;;;;;;;30.20;15.07;;;8.40;99.90;;;;;;5075029;28;20190;-81
2022/03/10 02:24:40;;;;;;;35.13;14.25;;;8.40;99.90;;;;;;5074591;28;20166;-83
2022/03/10 02:27:18;;;;;;;26.85;15.15;;;8.40;99.90;;;;;;5056873;28;20539;-83
2022/03/10 02:29:44;;;;;;;26.73;14.05;;;8.40;99.90;;;;;;5074792;28;20159;-82
2022/03/10 02:32:11;;;;;;;22.38;12.68;;;8.50;99.90;;;;;;5074970;28;20174;-83
2022/03/10 02:34:38;;;;;;;26.20;15.23;;;8.50;99.90;;;;;;5074669;28;20155;-77
2022/03/10 02:37:04;;;;;;;26.02;14.98;;;8.50;99.90;;;;;;5074284;28;20206;-77
2022/03/10 02:39:30;;;;;;;27.95;15.00;;;8.50;99.90;;;;;;5074458;28;20215;-83
2022/03/10 02:41:56;;;;;;;27.13;15.15;;;8.40;99.90;;;;;;5075054;28;20175;-79
2022/03/10 02:44:22;;;;;;;28.00;14.13;;;8.40;99.90;;;;;;5087645;28;20211;-77
2022/03/10 02:46:47;;;;;;;25.30;13.65;;;8.30;99.90;;;;;;5089955;28;20213;-82
2022/03/10 02:49:13;;;;;;;27.70;15.02;;;8.20;99.90;;;;;;5090321;28;20189;-81
2022/03/10 02:51:38;;;;;;;29.48;14.68;;;8.30;99.90;;;;;;5084676;28;20534;-80
2022/03/10 02:54:04;;;;;;;23.63;13.85;;;8.20;99.90;;;;;;5074393;28;20175;-79
2022/03/10 02:56:29;;;;;;;27.13;15.23;;;8.20;99.90;;;;;;5074537;28;20520;-78
2022/03/10 02:58:55;;;;;;;24.02;13.43;;;8.30;99.90;;;;;;5074091;28;20179;-78
2022/03/10 03:01:21;;;;;;;31.70;15.00;;;8.20;99.90;;;;;;5073512;28;20645;-82
2022/03/10 03:03:46;;;;;;;28.42;14.90;;;8.20;99.90;;;;;;5073413;28;20560;-79
2022/03/10 03:06:12;;;;;;;28.80;13.70;;;8.20;99.90;;;;;;5073508;28;20187;-77
2022/03/10 03:08:37;;;;;;;21.90;13.30;;;8.20;99.90;;;;;;5073836;28;20181;-83
2022/03/10 03:11:03;;;;;;;21.67;13.18;;;8.20;99.90;;;;;;5073314;28;20202;-83
2022/03/10 03:13:29;;;;;;;30.98;15.25;;;8.20;99.90;;;;;;5073302;28;20166;-83
2022/03/10 03:15:54;;;;;;;23.08;13.43;;;8.20;99.90;;;;;;5072905;28;20186;-83
2022/03/10 03:18:20;;;;;;;24.13;14.60;;;8.10;99.90;;;;;;5073376;28;20210;-84
2022/03/10 03:20:45;;;;;;;26.98;15.40;;;8.10;99.90;;;;;;5073632;28;20497;-81
2022/03/10 03:23:11;;;;;;;24.92;14.20;;;8.00;99.90;;;;;;5073035;28;20189;-78
2022/03/10 03:25:37;;;;;;;25.77;14.80;;;8.00;99.90;;;;;;5073325;28;20186;-78
2022/03/10 03:28:02;;;;;;;25.80;14.25;;;8.10;99.90;;;;;;5073484;28;20169;-83
2022/03/10 03:30:28;;;;;;;31.42;15.23;;;8.10;99.90;;;;;;5073349;28;20159;-83
2022/03/10 03:32:54;;;;;;;28.15;14.90;;;8.00;99.90;;;;;;5073060;28;20162;-83
2022/03/10 03:35:19;;;;;;;27.27;14.25;;;8.00;99.90;;;;;;5073029;28;20183;-81
2022/03/10 03:37:45;;;;;;;23.42;14.20;;;8.00;99.90;;;;;;5055227;28;20209;-79
2022/03/10 03:40:11;;;;;;;28.50;14.40;;;7.90;99.90;;;;;;5073284;28;20167;-78
2022/03/10 03:42:37;;;;;;;27.33;13.85;;;7.90;99.90;;;;;;5073247;28;20304;-81
2022/03/10 03:45:04;;;;;;;32.58;15.50;;;7.90;99.90;;;;;;5072858;28;20182;-83
2022/03/10 03:47:30;;;;;;;28.50;14.30;;;7.90;99.90;;;;;;5073175;28;20227;-82
2022/03/10 03:49:56;;;;;;;30.13;14.60;;;7.90;99.90;;;;;;5072902;28;20555;-81
2022/03/10 03:52:21;;;;;;;24.73;14.40;;;7.80;99.90;;;;;;5072518;28;20166;-82
2022/03/10 03:54:47;;;;;;;27.15;13.60;;;7.70;99.90;;;;;;5072593;28;20165;-82
2022/03/10 03:57:12;;;;;;;26.38;15.38;;;7.70;99.90;;;;;;5072855;28;20692;-78
2022/03/10 03:59:38;;;;;;;23.52;14.35;;;7.70;99.90;;;;;;5073132;28;20170;-82
2022/03/10 04:02:04;;;;;;;23.98;14.13;;;7.60;99.90;;;;;;5072909;28;20191;-82
2022/03/10 04:04:30;;;;;;;28.80;14.68;;;7.50;99.90;;;;;;5054986;28;20258;-83
2022/03/10 04:06:55;;;;;;;25.13;13.90;;;7.60;99.90;;;;;;5073003;28;20182;-78
2022/03/10 04:09:22;;;;;;;25.42;13.85;;;7.60;99.90;;;;;;5072972;28;20623;-79
2022/03/10 04:11:48;;;;;;;21.85;14.60;;;7.60;99.90;;;;;;5054952;28;20235;-78
2022/03/10 04:14:14;;;;;;;25.92;13.63;;;7.60;99.90;;;;;;5072880;28;20194;-78
2022/03/10 04:16:40;;;;;;;28.38;15.18;;;7.60;99.90;;;;;;5072626;28;20205;-78
2022/03/10 04:19:06;;;;;;;27.38;14.48;;;7.60;99.90;;;;;;5073042;28;20170;-83
2022/03/10 04:21:32;;;;;;;31.05;14.40;;;7.50;99.90;;;;;;5073009;28;20635;-81
2022/03/10 04:23:58;;;;;;;23.42;14.02;;;7.50;99.90;;;;;;5072940;28;20171;-82
2022/03/10 04:26:23;;;;;;;33.47;15.45;;;7.30;99.90;;;;;;5072694;28;20228;-77
2022/03/10 04:28:49;;;;;;;24.77;14.07;;;7.20;99.90;;;;;;5072469;28;20708;-84
2022/03/10 04:31:15;;;;;;;25.40;15.75;;;7.20;99.90;;;;;;5072667;28;20163;-78
2022/03/10 04:33:40;;;;;;;26.42;15.20;;;7.30;99.90;;;;;;5072620;28;20170;-82
2022/03/10 04:36:07;;;;;;;26.00;14.93;;;7.40;99.90;;;;;;5072342;28;20190;-82
2022/03/10 04:38:33;;;;;;;33.22;17.25;;;7.40;99.90;;;;;;5072393;28;20251;-79
2022/03/10 04:40:58;;;;;;;27.83;16.02;;;7.30;99.90;;;;;;5072889;28;20163;-80
2022/03/10 04:43:24;;;;;;;35.17;17.08;;;7.30;99.90;;;;;;5072986;28;20627;-84
2022/03/10 04:45:49;;;;;;;35.42;15.27;;;7.30;99.90;;;;;;5072275;28;20639;-83
2022/03/10 04:48:15;;;;;;;31.25;15.15;;;7.20;99.90;;;;;;5072412;28;20170;-78
2022/03/10 04:50:41;;;;;;;24.80;14.38;;;7.10;99.90;;;;;;5072318;28;20729;-80
2022/03/10 04:53:06;;;;;;;36.15;14.05;;;7.00;99.90;;;;;;5072768;28;20167;-78
2022/03/10 04:55:32;;;;;;;28.58;14.77;;;7.10;99.90;;;;;;5072793;28;20193;-79
2022/03/10 04:57:58;;;;;;;29.13;15.38;;;7.10;99.90;;;;;;5072233;28;20210;-79
2022/03/10 05:00:23;;;;;;;27.00;14.18;;;7.10;99.90;;;;;;5072546;28;20166;-80
2022/03/10 05:02:49;;;;;;;25.05;14.80;;;7.20;99.90;;;;;;5072669;28;20178;-79
2022/03/10 05:05:17;;;;;;;31.48;14.85;;;7.20;99.90;;;;;;5073680;28;20178;-83
2022/03/10 05:07:43;;;;;;;25.38;15.23;;;7.10;99.90;;;;;;5075906;28;20539;-83
2022/03/10 05:10:11;;;;;;;30.67;15.20;;;7.10;99.90;;;;;;5076070;28;20177;-82
2022/03/10 05:12:52;;;;;;;32.10;16.23;;;7.00;99.90;;;;;;5075919;28;20246;-83
2022/03/10 05:15:19;;;;;;;30.25;14.82;;;7.00;99.90;;;;;;5075707;28;20193;-82
2022/03/10 05:17:45;;;;;;;34.45;15.35;;;7.10;99.90;;;;;;5075205;28;20209;-79
2022/03/10 05:20:11;;;;;;;36.42;15.05;;;7.00;99.90;;;;;;5075581;28;20162;-82
2022/03/10 05:22:51;;;;;;;40.75;15.05;;;7.00;99.90;;;;;;5075732;28;20185;-78
2022/03/10 05:25:18;;;;;;;29.60;14.52;;;7.00;99.90;;;;;;5075429;28;20639;-80
2022/03/10 05:27:45;;;;;;;29.98;14.38;;;7.00;99.90;;;;;;5074399;28;20175;-79
2022/03/10 05:30:12;;;;;;;39.88;17.40;;;7.00;99.90;;;;;;5075452;28;20212;-82
2022/03/10 05:32:37;;;;;;;33.08;14.98;;;7.10;99.90;;;;;;5075127;28;20167;-79
2022/03/10 05:35:04;;;;;;;41.20;15.80;;;7.10;99.90;;;;;;5075041;28;20266;-78
2022/03/10 05:37:30;;;;;;;29.40;14.82;;;7.00;99.90;;;;;;5074949;28;20209;-79
2022/03/10 05:39:56;;;;;;;29.70;16.42;;;6.90;99.90;;;;;;5075049;28;20175;-83
2022/03/10 05:42:22;;;;;;;39.17;15.40;;;6.90;99.90;;;;;;5074440;28;20173;-78
2022/03/10 05:44:48;;;;;;;33.20;15.77;;;6.90;99.90;;;;;;5075118;28;20620;-77
2022/03/10 05:47:13;;;;;;;25.48;14.90;;;6.90;99.90;;;;;;5074810;28;20163;-82
2022/03/10 05:49:39;;;;;;;32.47;16.05;;;6.90;99.90;;;;;;5074671;28;20201;-82
2022/03/10 05:52:05;;;;;;;28.70;14.57;;;6.80;99.90;;;;;;5074830;28;20174;-79
2022/03/10 05:54:31;;;;;;;38.80;15.43;;;6.90;99.90;;;;;;5074577;28;20171;-79
2022/03/10 05:56:57;;;;;;;34.60;14.77;;;6.90;99.90;;;;;;5074751;28;20273;-78
2022/03/10 05:59:23;;;;;;;26.98;15.32;;;6.90;99.90;;;;;;5074940;28;20691;-79
2022/03/10 06:01:49;;;;;;;53.38;16.45;;;6.60;99.90;;;;;;5074562;28;20266;-78
2022/03/10 06:04:15;;;;;;;31.35;14.63;;;6.50;99.90;;;;;;5074649;28;20162;-79
2022/03/10 06:06:43;;;;;;;40.13;16.33;;;6.70;99.90;;;;;;5074264;28;20259;-82
2022/03/10 06:09:09;;;;;;;29.48;15.15;;;6.70;99.90;;;;;;5074713;28;20166;-78
2022/03/10 06:11:35;;;;;;;28.20;15.07;;;6.70;99.90;;;;;;5074617;28;20163;-78
2022/03/10 06:14:00;;;;;;;41.08;14.10;;;6.80;99.90;;;;;;5074847;28;20699;-84
2022/03/10 06:16:26;;;;;;;49.75;17.70;;;6.90;99.90;;;;;;5056592;28;20227;-78
2022/03/10 06:18:52;;;;;;;86.22;17.98;;;6.90;99.90;;;;;;5074243;28;20201;-84
2022/03/10 06:21:18;;;;;;;145.77;21.55;;;6.70;99.90;;;;;;5074791;28;20198;-78
2022/03/10 06:23:43;;;;;;;115.15;19.33;;;6.70;99.90;;;;;;5074745;28;20181;-82
2022/03/10 06:26:09;;;;;;;69.38;18.02;;;6.70;99.90;;;;;;5074177;28;20197;-78
2022/03/10 06:28:35;;;;;;;71.10;18.52;;;7.00;99.90;;;;;;5074888;28;20174;-79
2022/03/10 06:31:00;;;;;;;51.97;16.50;;;7.00;99.90;;;;;;5075787;28;20189;-81
2022/03/10 06:33:26;;;;;;;47.35;16.60;;;6.90;99.90;;;;;;5081210;28;20167;-78
2022/03/10 06:35:52;;;;;;;43.95;17.92;;;7.00;99.90;;;;;;5091651;28;20181;-84
2022/03/10 06:38:18;;;;;;;44.55;16.50;;;7.00;99.90;;;;;;5095219;28;20186;-78
2022/03/10 06:40:43;;;;;;;35.08;15.88;;;7.00;99.90;;;;;;5094354;28;20180;-79
2022/03/10 06:43:09;;;;;;;39.38;16.27;;;7.10;99.90;;;;;;5093708;28;20197;-77
2022/03/10 06:45:35;;;;;;;39.13;14.55;;;7.00;99.90;;;;;;5096707;28;20177;-78
2022/03/10 06:48:00;;;;;;;38.25;16.67;;;7.00;99.90;;;;;;5094379;28;20163;-78
2022/03/10 06:50:26;;;;;;;33.85;15.80;;;7.00;99.90;;;;;;5097933;28;20185;-80
2022/03/10 06:52:56;;;;;;;32.10;15.25;;;7.10;99.90;;;;;;5095242;28;20182;-84
2022/03/10 06:55:25;;;;;;;36.97;15.15;;;7.20;99.90;;;;;;5071518;28;20214;-79
2022/03/10 06:57:52;;;;;;;45.28;17.77;;;7.30;99.90;;;;;;5083668;28;20279;-80
2022/03/10 07:00:17;;;;;;;51.75;15.60;;;7.40;99.90;;;;;;5077372;28;20166;-78
2022/03/10 07:02:43;;;;;;;42.92;15.48;;;7.50;99.90;;;;;;5081206;28;20170;-78
2022/03/10 07:05:09;;;;;;;30.67;16.60;;;7.50;99.90;;;;;;5082179;28;20232;-81
2022/03/10 07:07:35;;;;;;;30.52;16.70;;;7.50;99.90;;;;;;5078202;28;20221;-79
2022/03/10 07:10:01;;;;;;;31.63;14.70;;;7.60;99.90;;;;;;5074783;28;20181;-80
2022/03/10 07:12:27;;;;;;;31.40;15.73;;;7.70;99.90;;;;;;5073571;28;20648;-79
2022/03/10 07:14:53;;;;;;;41.75;17.65;;;7.80;99.90;;;;;;5073377;28;20170;-83
2022/03/10 07:17:19;;;;;;;42.00;16.60;;;7.90;99.90;;;;;;5073719;28;20194;-83
2022/03/10 07:19:45;;;;;;;50.00;18.15;;;7.90;99.90;;;;;;5073142;28;20259;-83
2022/03/10 07:22:16;;;;;;;42.78;15.82;;;8.00;99.90;;;;;;5072886;28;20490;-82
2022/03/10 07:24:41;;;;;;;40.42;17.98;;;7.90;99.90;;;;;;5072832;28;20623;-82
2022/03/10 07:27:07;;;;;;;36.33;17.52;;;8.00;99.90;;;;;;5073238;28;20174;-81
2022/03/10 07:29:33;;;;;;;40.95;18.05;;;8.10;99.90;;;;;;5072705;28;20163;-79
2022/03/10 07:31:58;;;;;;;47.63;18.48;;;8.10;99.90;;;;;;5072517;28;20170;-79
2022/03/10 07:34:24;;;;;;;41.67;17.70;;;8.10;99.90;;;;;;5072599;28;20201;-78
2022/03/10 07:36:49;;;;;;;46.85;18.25;;;8.20;99.90;;;;;;5072977;28;20816;-80
2022/03/10 07:39:15;;;;;;;40.55;18.50;;;8.20;99.90;;;;;;5072961;28;20180;-83
2022/03/10 07:41:41;;;;;;;138.68;27.05;;;8.40;99.90;;;;;;5072491;28;20167;-80
2022/03/10 07:44:06;;;;;;;50.88;20.98;;;8.60;99.90;;;;;;5072922;28;20173;-83
2022/03/10 07:46:32;;;;;;;35.42;16.50;;;8.80;99.90;;;;;;5054719;28;20270;-82
2022/03/10 07:48:57;;;;;;;48.35;16.02;;;9.00;99.90;;;;;;5072410;28;20519;-81
2022/03/10 07:51:23;;;;;;;141.90;21.42;;;9.10;99.90;;;;;;5072607;28;20519;-79
2022/03/10 07:53:49;;;;;;;45.53;17.50;;;9.20;99.90;;;;;;5072586;28;20171;-83
2022/03/10 07:56:14;;;;;;;30.13;15.38;;;9.30;99.90;;;;;;5072552;28;20268;-82
2022/03/10 07:58:40;;;;;;;34.40;15.68;;;9.50;99.90;;;;;;5073042;28;20198;-80
2022/03/10 08:01:06;;;;;;;40.35;16.35;;;9.50;99.90;;;;;;5072558;28;20191;-80
2022/03/10 08:03:31;;;;;;;36.28;15.60;;;9.60;99.90;;;;;;5072424;28;20861;-81
2022/03/10 08:05:57;;;;;;;41.50;16.70;;;9.70;99.90;;;;;;5072678;28;20190;-80
2022/03/10 08:08:22;;;;;;;29.33;15.52;;;9.80;99.90;;;;;;5072987;28;20181;-81
2022/03/10 08:10:48;;;;;;;35.25;16.20;;;9.90;99.90;;;;;;5072537;28;20158;-86
2022/03/10 08:13:14;;;;;;;34.63;15.52;;;10.10;99.90;;;;;;5072944;28;20190;-81
2022/03/10 08:15:40;;;;;;;31.63;16.75;;;10.20;99.90;;;;;;5054731;28;20187;-80
2022/03/10 08:18:06;;;;;;;34.65;16.90;;;10.30;99.90;;;;;;5072214;28;20201;-79
2022/03/10 08:20:32;;;;;;;30.58;15.35;;;10.40;99.90;;;;;;5072726;28;20220;-86
2022/03/10 08:22:57;;;;;;;40.90;15.52;;;10.50;99.90;;;;;;5072372;28;20170;-80
2022/03/10 08:25:23;;;;;;;29.48;15.18;;;10.60;99.90;;;;;;5072335;28;20217;-84
2022/03/10 08:27:49;;;;;;;28.70;14.70;;;10.70;99.90;;;;;;5072657;28;20228;-80
2022/03/10 08:30:15;;;;;;;32.78;14.45;;;10.90;99.90;;;;;;5072577;28;20166;-85
2022/03/10 08:32:44;;;;;;;30.60;14.65;;;11.00;99.90;;;;;;5072933;28;20178;-80
2022/03/10 08:35:10;;;;;;;26.92;14.52;;;11.00;99.90;;;;;;5073043;28;20232;-85
2022/03/10 08:37:36;;;;;;;149.18;21.73;;;11.10;99.90;;;;;;5072862;28;20202;-86
2022/03/10 08:40:02;;;;;;;205.77;26.13;;;11.00;99.90;;;;;;5074852;28;20190;-82
2022/03/10 08:42:28;;;;;;;98.22;19.77;;;11.10;99.90;;;;;;5076080;28;20197;-84
2022/03/10 08:44:54;;;;;;;40.28;14.32;;;11.20;99.90;;;;;;5076020;28;20162;-80
2022/03/10 08:47:19;;;;;;;32.00;16.05;;;11.30;99.90;;;;;;5076072;28;20267;-80
2022/03/10 08:49:45;;;;;;;28.05;14.48;;;11.50;99.90;;;;;;5076381;28;20163;-86
2022/03/10 08:52:11;;;;;;;427.17;39.75;;;11.70;99.90;;;;;;5076294;28;20224;-86
2022/03/10 08:54:36;;;;;;;39.83;16.45;;;11.80;99.90;;;;;;5076060;28;21315;-79
2022/03/10 08:57:02;;;;;;;58.90;16.42;;;11.80;99.90;;;;;;5076109;28;20311;-81
2022/03/10 08:59:28;;;;;;;41.42;14.85;;;12.00;99.90;;;;;;5075496;28;20175;-84
2022/03/10 09:01:54;;;;;;;26.90;14.50;;;12.10;99.90;;;;;;5075599;28;20194;-78
2022/03/10 09:04:20;;;;;;;30.48;13.98;;;12.20;99.90;;;;;;5075534;28;20189;-78
2022/03/10 09:06:46;;;;;;;25.58;13.70;;;12.30;99.90;;;;;;5075847;28;20182;-83
2022/03/10 09:09:11;;;;;;;35.17;13.80;;;12.50;99.90;;;;;;5076258;28;20522;-81
2022/03/10 09:11:38;;;;;;;31.83;12.82;;;12.60;99.90;;;;;;5075575;28;20171;-79
2022/03/10 09:14:04;;;;;;;73.10;15.00;;;12.60;99.90;;;;;;5075466;28;20575;-77
2022/03/10 09:16:39;;;;;;;24.02;12.85;;;12.80;99.90;;;;;;5072476;28;20393;-79
2022/03/10 09:19:04;;;;;;;27.23;12.43;;;12.70;99.90;;;;;;5068756;28;20190;-81
2022/03/10 09:21:30;;;;;;;25.42;13.27;;;12.80;99.90;;;;;;5057353;28;20623;-85
2022/03/10 09:23:56;;;;;;;20.17;11.63;;;12.80;99.90;;;;;;5054584;28;20611;-79
2022/03/10 09:26:21;;;;;;;24.30;14.05;;;12.90;99.90;;;;;;5074320;28;20718;-80
2022/03/10 09:28:47;;;;;;;24.85;13.25;;;12.90;99.90;;;;;;5056991;28;20174;-79
2022/03/10 09:31:15;;;;;;;20.23;11.90;;;12.90;99.90;;;;;;5076267;28;20174;-81
2022/03/10 09:33:41;;;;;;;19.55;12.10;;;13.10;99.90;;;;;;5075249;28;20175;-84
2022/03/10 09:36:07;;;;;;;21.80;13.05;;;13.10;99.90;;;;;;5075087;28;20609;-79
2022/03/10 09:38:32;;;;;;;25.65;13.63;;;13.20;99.90;;;;;;5074974;28;20202;-85
2022/03/10 09:40:58;;;;;;;24.13;12.77;;;13.20;99.90;;;;;;5074838;28;20170;-83
2022/03/10 09:43:28;;;;;;;27.08;13.20;;;13.20;99.90;;;;;;5074636;28;20170;-79
2022/03/10 09:45:54;;;;;;;18.65;12.93;;;13.20;99.90;;;;;;5056392;28;20199;-79
2022/03/10 09:48:20;;;;;;;17.77;12.50;;;13.20;99.90;;;;;;5074963;28;20162;-85
2022/03/10 09:50:46;;;;;;;27.88;12.98;;;13.40;99.90;;;;;;5072466;28;20193;-82
2022/03/10 09:53:13;;;;;;;19.13;12.68;;;13.40;99.90;;;;;;5073909;28;20695;-81
2022/03/10 09:55:38;;;;;;;26.20;11.85;;;13.40;99.90;;;;;;5072434;28;20226;-81
2022/03/10 09:58:06;;;;;;;18.35;13.13;;;13.60;99.90;;;;;;5074844;28;20229;-80
2022/03/10 10:00:31;;;;;;;24.90;13.60;;;13.60;99.90;;;;;;5074362;28;20185;-78
2022/03/10 10:02:57;;;;;;;27.38;12.65;;;13.60;99.90;;;;;;5073091;28;20171;-85
2022/03/10 10:05:28;;;;;;;23.27;12.25;;;13.70;99.90;;;;;;5074584;28;20182;-84
2022/03/10 10:08:09;;;;;;;38.35;14.25;;;13.70;99.90;;;;;;5074673;28;20552;-82
2022/03/10 10:10:41;;;;;;;26.67;14.57;;;13.60;99.90;;;;;;5075041;28;20204;-86
2022/03/10 10:13:07;;;;;;;19.20;12.40;;;13.80;99.90;;;;;;5074987;28;20620;-78
2022/03/10 10:15:34;;;;;;;28.60;13.23;;;14.00;99.90;;;;;;5074732;28;20201;-84
2022/03/10 10:18:00;;;;;;;19.63;12.48;;;14.00;99.90;;;;;;5052429;28;20224;-82
2022/03/10 10:20:31;;;;;;;26.70;11.57;;;14.10;99.90;;;;;;5061394;28;20165;-80
2022/03/10 10:23:14;;;;;;;34.95;13.88;;;14.10;99.90;;;;;;5072486;28;20651;-86
2022/03/10 10:26:07;;;;;;;25.10;14.00;;;14.10;99.90;;;;;;5073638;28;20186;-82
2022/03/10 10:28:34;;;;;;;54.33;17.00;;;14.20;99.90;;;;;;5072385;28;20183;-85
2022/03/10 10:31:04;;;;;;;54.92;22.40;;;14.20;99.90;;;;;;5074400;28;20172;-87
2022/03/10 10:33:34;;;;;;;23.63;14.70;;;14.30;99.90;;;;;;5073714;28;20170;-87
2022/03/10 10:36:17;;;;;;;31.30;13.10;;;14.20;99.90;;;;;;5074383;28;20916;-80
2022/03/10 10:38:44;;;;;;;28.70;18.70;;;14.20;99.90;;;;;;5055961;28;20210;-83
2022/03/10 10:41:29;;;;;;;21.75;14.43;;;14.40;99.90;;;;;;5074175;28;20162;-80
2022/03/10 10:43:59;;;;;;;51.90;32.30;;;14.40;99.90;;;;;;5074399;28;20173;-82
2022/03/10 10:46:32;;;;;;;34.10;21.48;;;14.50;99.90;;;;;;5074770;28;20194;-82
2022/03/10 10:49:00;;;;;;;30.42;14.77;;;14.50;99.90;;;;;;5056763;28;20246;-87
2022/03/10 10:51:44;;;;;;;21.88;12.30;;;14.60;99.90;;;;;;5075175;28;20170;-82
2022/03/10 10:54:26;;;;;;;26.00;15.60;;;14.60;99.90;;;;;;5057787;28;20503;-86
2022/03/10 10:57:01;;;;;;;22.70;13.80;;;14.70;99.90;;;;;;5077211;28;20221;-81
2022/03/10 10:59:43;;;;;;;32.53;17.92;;;14.80;99.90;;;;;;5091114;28;20166;-83
2022/03/10 11:02:11;;;;;;;22.80;13.13;;;14.90;99.90;;;;;;5090101;28;20508;-82
2022/03/10 11:04:39;;;;;;;27.52;13.00;;;15.00;99.90;;;;;;5089094;28;20182;-81
2022/03/10 11:07:05;;;;;;;26.75;12.27;;;14.90;99.90;;;;;;5081958;28;20186;-80
2022/03/10 11:09:32;;;;;;;18.80;12.20;;;14.80;99.90;;;;;;5077627;28;20178;-85
2022/03/10 11:11:57;;;;;;;16.45;11.43;;;14.90;99.90;;;;;;5094203;28;20163;-83
2022/03/10 11:14:24;;;;;;;20.15;11.38;;;15.00;99.90;;;;;;5068832;28;20220;-83
2022/03/10 11:16:49;;;;;;;22.02;11.52;;;15.00;99.90;;;;;;5074113;28;20234;-79
2022/03/10 11:19:25;;;;;;;24.48;11.52;;;15.10;99.90;;;;;;5073371;28;20205;-87
2022/03/10 11:22:20;;;;;;;18.75;11.45;;;15.10;99.90;;;;;;5072527;28;20162;-79
2022/03/10 11:24:59;;;;;;;17.77;10.70;;;15.10;99.90;;;;;;5075498;28;20167;-79
2022/03/10 11:27:32;;;;;;;18.45;11.00;;;15.30;99.90;;;;;;5074803;28;20172;-78
2022/03/10 11:30:00;;;;;;;24.02;11.63;;;15.30;99.90;;;;;;5074093;28;20170;-82
2022/03/10 11:32:28;;;;;;;23.00;12.60;;;15.20;99.90;;;;;;5054984;28;20542;-77
2022/03/10 11:34:58;;;;;;;20.55;11.95;;;15.20;99.90;;;;;;5073041;28;20171;-82
2022/03/10 11:37:44;;;;;;;22.17;12.32;;;15.10;99.90;;;;;;5072985;28;20554;-78
2022/03/10 11:40:12;;;;;;;20.33;10.57;;;15.20;99.90;;;;;;5073421;28;20221;-87
2022/03/10 11:42:39;;;;;;;16.52;10.70;;;15.20;99.90;;;;;;5072811;28;20257;-83
2022/03/10 11:45:09;;;;;;;53.40;12.93;;;15.30;99.90;;;;;;5073085;28;20218;-79
2022/03/10 11:47:35;;;;;;;58.38;14.75;;;15.50;99.90;;;;;;5070024;28;20224;-79
2022/03/10 11:50:23;;;;;;;24.42;11.90;;;15.50;99.90;;;;;;5071963;28;20218;-79
2022/03/10 11:52:57;;;;;;;29.13;12.43;;;15.50;99.90;;;;;;5072849;28;20162;-79
2022/03/10 11:55:36;;;;;;;16.73;10.70;;;15.50;99.90;;;;;;5072393;28;20268;-78
2022/03/10 11:58:05;;;;;;;113.05;15.82;;;15.30;99.90;;;;;;5054090;28;20214;-84
2022/03/10 12:00:39;;;;;;;50.95;12.52;;;15.40;99.90;;;;;;5071338;28;20185;-85
2022/03/10 12:03:05;;;;;;;85.03;14.93;;;15.40;99.90;;;;;;5072048;28;20170;-83
2022/03/10 12:05:49;;;;;;;171.02;23.75;;;15.40;99.90;;;;;;5073220;28;20179;-79
2022/03/10 12:08:18;;;;;;;30.13;11.50;;;15.50;99.90;;;;;;5075156;28;20162;-80
2022/03/10 12:10:44;;;;;;;37.65;13.18;;;15.50;99.90;;;;;;5072316;28;20175;-83
2022/03/10 12:13:46;;;;;;;24.98;10.95;;;15.70;99.90;;;;;;5072258;28;20186;-77
2022/03/10 12:16:27;;;;;;;20.40;11.10;;;15.80;99.90;;;;;;5076615;28;20285;-86
2022/03/10 12:18:53;;;;;;;23.80;11.88;;;15.90;99.90;;;;;;5077066;28;20209;-85
2022/03/10 12:21:27;;;;;;;23.17;11.10;;;15.90;99.90;;;;;;5077337;28;20159;-85
2022/03/10 12:23:54;;;;;;;30.05;12.07;;;15.90;99.90;;;;;;5077260;28;20377;-85
2022/03/10 12:26:43;;;;;;;30.88;12.43;;;15.90;99.90;;;;;;5076978;28;20269;-86
2022/03/10 12:29:11;;;;;;;29.23;12.95;;;15.80;99.90;;;;;;5076903;28;20189;-85
2022/03/10 12:31:40;;;;;;;31.40;12.52;;;15.80;99.90;;;;;;5076853;28;20501;-77
2022/03/10 12:34:09;;;;;;;65.90;12.73;;;15.80;99.90;;;;;;5076725;28;20598;-85
2022/03/10 12:36:36;;;;;;;20.85;11.60;;;15.80;99.90;;;;;;5079075;28;20198;-85
2022/03/10 12:39:22;;;;;;;23.23;12.10;;;15.80;99.90;;;;;;5076464;28;20689;-77
2022/03/10 12:41:54;;;;;;;28.65;12.77;;;15.80;99.90;;;;;;5059161;28;20166;-79
2022/03/10 12:44:22;;;;;;;45.20;13.90;;;15.90;99.90;;;;;;5076416;28;20223;-80